This is the latest recevied weather packets stored in our database for station/object AA0PB. If no packets are shown the sender has not sent any weather packets the latest 10 day(s).
| Time | Temp. | Humidity | Pressure | Rain* | Wind** | Luminosity | Snow |
|---|---|---|---|---|---|---|---|
| 1777480322 | 12.22° C | 65% | 1025.2 hPa | 0 mm | - | 394 W/m² | - |
| 1777480018 | 11.67° C | 67% | 1025 hPa | 0 mm | - | 386 W/m² | - |
| 1777479715 | 12.78° C | 64% | 1025.1 hPa | 0 mm | - | 366 W/m² | - |
| 1777479413 | 12.78° C | 64% | 1025.3 hPa | 0 mm | - | 358 W/m² | - |
| 1777479109 | 11.67° C | 68% | 1025.2 hPa | 0 mm | - | 346 W/m² | - |
| 1777478806 | 11.67° C | 68% | 1025.4 hPa | 0 mm | - | 331 W/m² | - |
| 1777478502 | 12.22° C | 67% | 1025.4 hPa | 0 mm | - | 316 W/m² | - |
| 1777478199 | 11.11° C | 68% | 1025.2 hPa | 0 mm | - | 305 W/m² | - |
| 1777477895 | 11.11° C | 70% | 1025.6 hPa | 0 mm | - | 291 W/m² | - |
| 1777477591 | 10.56° C | 74% | 1025.3 hPa | 0 mm | - | 276 W/m² | - |
| 1777477287 | 10° C | 76% | 1025.3 hPa | 0 mm | - | 239 W/m² | - |
| 1777476984 | 10° C | 78% | 1025.5 hPa | 0 mm | - | 225 W/m² | - |
| 1777476682 | 10° C | 76% | 1025.5 hPa | 0 mm | - | 242 W/m² | - |
| 1777476378 | 9.44° C | 78% | 1025.5 hPa | 0 mm | - | 180 W/m² | - |
| 1777476075 | 9.44° C | 79% | 1025.3 hPa | 0 mm | - | 213 W/m² | - |
| 1777475770 | 8.89° C | 80% | 1025.6 hPa | 0 mm | - | 194 W/m² | - |
| 1777475467 | 8.33° C | 82% | 1025.4 hPa | 0 mm | - | 64 W/m² | - |
| 1777475163 | 8.33° C | 83% | 1025.5 hPa | 0 mm | - | 162 W/m² | - |
| 1777474859 | 7.78° C | 84% | 1025.7 hPa | 0 mm | - | 78 W/m² | - |
| 1777474554 | 8.33° C | 83% | 1025.5 hPa | 0 mm | - | 56 W/m² | - |
| 1777474252 | 7.78° C | 83% | 1025.6 hPa | 0 mm | - | 54 W/m² | - |
| 1777473948 | 7.78° C | 85% | 1025.8 hPa | 0 mm | - | 52 W/m² | - |
| 1777473646 | 7.78° C | 86% | 1025.4 hPa | 0 mm | - | 48 W/m² | - |
| 1777473342 | 7.22° C | 88% | 1025.7 hPa | 0 mm | - | 49 W/m² | - |
| 1777473038 | 7.22° C | 88% | 1025.6 hPa | 0 mm | - | 51 W/m² | - |
* Rain latest hour (hover to see other rain measurements)
** Current wind speed in m/s (hover to see current wind gust speed)